sensor_id;sensor_type;location;lat;lon;timestamp;pressure;altitude;pressure_sealevel;temperature;humidity
46464;BME280;32161;48.148;-1.554;2022-08-03T00:01:47;101013.69;;;23.33;74.80
46464;BME280;32161;48.148;-1.554;2022-08-03T00:04:15;101004.56;;;23.32;74.64
46464;BME280;32161;48.148;-1.554;2022-08-03T00:06:44;100998.53;;;23.30;74.73
46464;BME280;32161;48.148;-1.554;2022-08-03T00:09:11;101012.19;;;23.27;74.35
46464;BME280;32161;48.148;-1.554;2022-08-03T00:11:39;101007.66;;;23.17;75.03
46464;BME280;32161;48.148;-1.554;2022-08-03T00:14:07;101003.03;;;23.12;75.95
46464;BME280;32161;48.148;-1.554;2022-08-03T00:16:35;101000.97;;;23.04;75.90
46464;BME280;32161;48.148;-1.554;2022-08-03T00:19:03;101004.91;;;23.03;76.40
46464;BME280;32161;48.148;-1.554;2022-08-03T00:21:31;100996.16;;;22.96;76.65
46464;BME280;32161;48.148;-1.554;2022-08-03T00:24:00;101001.19;;;22.94;76.99
46464;BME280;32161;48.148;-1.554;2022-08-03T00:26:27;101005.44;;;22.86;76.88
46464;BME280;32161;48.148;-1.554;2022-08-03T00:28:56;100994.47;;;22.81;77.75
46464;BME280;32161;48.148;-1.554;2022-08-03T00:31:24;100997.25;;;22.81;77.48
46464;BME280;32161;48.148;-1.554;2022-08-03T00:33:52;100993.75;;;22.76;78.04
46464;BME280;32161;48.148;-1.554;2022-08-03T00:36:19;100989.84;;;22.77;77.97
46464;BME280;32161;48.148;-1.554;2022-08-03T00:38:47;100992.09;;;22.75;78.04
46464;BME280;32161;48.148;-1.554;2022-08-03T00:41:16;100997.84;;;22.64;77.88
46464;BME280;32161;48.148;-1.554;2022-08-03T00:43:43;100989.19;;;22.52;79.42
46464;BME280;32161;48.148;-1.554;2022-08-03T00:46:12;100993.50;;;22.58;78.84
46464;BME280;32161;48.148;-1.554;2022-08-03T00:48:40;100987.88;;;22.63;78.86
46464;BME280;32161;48.148;-1.554;2022-08-03T00:51:07;100990.63;;;22.63;78.57
46464;BME280;32161;48.148;-1.554;2022-08-03T00:53:36;100989.81;;;22.63;78.66
46464;BME280;32161;48.148;-1.554;2022-08-03T00:56:04;100980.69;;;22.62;78.22
46464;BME280;32161;48.148;-1.554;2022-08-03T00:58:33;100986.34;;;22.57;79.10
46464;BME280;32161;48.148;-1.554;2022-08-03T01:01:01;100984.16;;;22.54;79.04
46464;BME280;32161;48.148;-1.554;2022-08-03T01:03:31;100976.03;;;22.44;79.57
46464;BME280;32161;48.148;-1.554;2022-08-03T01:06:06;100975.59;;;22.37;79.51
46464;BME280;32161;48.148;-1.554;2022-08-03T01:08:47;100972.81;;;22.37;79.75
46464;BME280;32161;48.148;-1.554;2022-08-03T01:11:25;100973.97;;;22.36;79.89
46464;BME280;32161;48.148;-1.554;2022-08-03T01:14:03;100976.72;;;22.36;79.88
46464;BME280;32161;48.148;-1.554;2022-08-03T01:16:51;100967.16;;;22.28;79.82
46464;BME280;32161;48.148;-1.554;2022-08-03T01:19:37;100970.25;;;22.27;80.05
46464;BME280;32161;48.148;-1.554;2022-08-03T01:22:22;100969.00;;;22.19;80.16
46464;BME280;32161;48.148;-1.554;2022-08-03T01:25:02;100965.03;;;22.06;81.08
46464;BME280;32161;48.148;-1.554;2022-08-03T01:27:47;100968.63;;;22.07;81.21
46464;BME280;32161;48.148;-1.554;2022-08-03T01:30:19;100974.06;;;22.12;81.00
46464;BME280;32161;48.148;-1.554;2022-08-03T01:32:54;100964.19;;;22.06;80.35
46464;BME280;32161;48.148;-1.554;2022-08-03T01:35:31;100955.16;;;22.00;80.86
46464;BME280;32161;48.148;-1.554;2022-08-03T01:38:03;100960.38;;;22.02;81.22
46464;BME280;32161;48.148;-1.554;2022-08-03T01:40:34;100959.06;;;21.99;80.88
46464;BME280;32161;48.148;-1.554;2022-08-03T01:43:04;100961.91;;;21.94;81.14
46464;BME280;32161;48.148;-1.554;2022-08-03T01:45:35;100959.44;;;21.92;81.63
46464;BME280;32161;48.148;-1.554;2022-08-03T01:48:05;100960.25;;;21.93;81.75
46464;BME280;32161;48.148;-1.554;2022-08-03T01:50:34;100956.91;;;21.96;81.82
46464;BME280;32161;48.148;-1.554;2022-08-03T01:53:02;100957.19;;;21.94;81.94
46464;BME280;32161;48.148;-1.554;2022-08-03T01:55:30;100960.63;;;21.86;82.47
46464;BME280;32161;48.148;-1.554;2022-08-03T01:58:02;100962.59;;;21.86;82.54
46464;BME280;32161;48.148;-1.554;2022-08-03T02:00:33;100959.75;;;21.91;82.51
46464;BME280;32161;48.148;-1.554;2022-08-03T02:03:04;100954.72;;;21.93;82.56
46464;BME280;32161;48.148;-1.554;2022-08-03T02:05:33;100961.91;;;21.94;82.58
46464;BME280;32161;48.148;-1.554;2022-08-03T02:08:03;100961.97;;;21.89;83.25
46464;BME280;32161;48.148;-1.554;2022-08-03T02:10:32;100956.13;;;21.90;83.02
46464;BME280;32161;48.148;-1.554;2022-08-03T02:13:04;100961.69;;;21.90;83.21
46464;BME280;32161;48.148;-1.554;2022-08-03T02:15:36;100961.06;;;21.93;83.02
46464;BME280;32161;48.148;-1.554;2022-08-03T02:18:06;100962.72;;;21.94;82.93
46464;BME280;32161;48.148;-1.554;2022-08-03T02:20:34;100963.03;;;21.93;83.19
46464;BME280;32161;48.148;-1.554;2022-08-03T02:23:04;100960.56;;;21.91;83.06
46464;BME280;32161;48.148;-1.554;2022-08-03T02:25:34;100964.16;;;21.92;83.34
46464;BME280;32161;48.148;-1.554;2022-08-03T02:28:09;100956.97;;;21.91;83.42
46464;BME280;32161;48.148;-1.554;2022-08-03T02:30:40;100952.03;;;21.88;83.67
46464;BME280;32161;48.148;-1.554;2022-08-03T02:33:18;100947.72;;;21.82;83.79
46464;BME280;32161;48.148;-1.554;2022-08-03T02:35:47;100947.78;;;21.77;84.16
46464;BME280;32161;48.148;-1.554;2022-08-03T02:38:22;100952.19;;;21.78;84.26
46464;BME280;32161;48.148;-1.554;2022-08-03T02:40:50;100950.19;;;21.83;83.92
46464;BME280;32161;48.148;-1.554;2022-08-03T02:43:21;100948.25;;;21.84;83.95
46464;BME280;32161;48.148;-1.554;2022-08-03T02:45:52;100948.75;;;21.86;84.11
46464;BME280;32161;48.148;-1.554;2022-08-03T02:48:25;100939.31;;;21.87;83.78
46464;BME280;32161;48.148;-1.554;2022-08-03T02:50:57;100951.59;;;21.81;83.86
46464;BME280;32161;48.148;-1.554;2022-08-03T02:53:26;100946.06;;;21.81;83.96
46464;BME280;32161;48.148;-1.554;2022-08-03T02:55:56;100948.75;;;21.86;84.39
46464;BME280;32161;48.148;-1.554;2022-08-03T02:58:25;100938.81;;;21.85;83.96
46464;BME280;32161;48.148;-1.554;2022-08-03T03:00:55;100942.38;;;21.85;83.83
46464;BME280;32161;48.148;-1.554;2022-08-03T03:03:23;100945.47;;;21.84;84.11
46464;BME280;32161;48.148;-1.554;2022-08-03T03:05:52;100943.22;;;21.86;83.65
46464;BME280;32161;48.148;-1.554;2022-08-03T03:08:21;100942.94;;;21.87;83.74
46464;BME280;32161;48.148;-1.554;2022-08-03T03:10:49;100933.50;;;21.88;83.99
46464;BME280;32161;48.148;-1.554;2022-08-03T03:13:19;100941.56;;;21.85;84.08
46464;BME280;32161;48.148;-1.554;2022-08-03T03:15:47;100929.97;;;21.83;83.92
46464;BME280;32161;48.148;-1.554;2022-08-03T03:18:17;100927.59;;;21.76;84.24
46464;BME280;32161;48.148;-1.554;2022-08-03T03:20:47;100920.41;;;21.75;84.33
46464;BME280;32161;48.148;-1.554;2022-08-03T03:23:17;100922.34;;;21.75;84.26
46464;BME280;32161;48.148;-1.554;2022-08-03T03:25:46;100927.97;;;21.69;84.52
46464;BME280;32161;48.148;-1.554;2022-08-03T03:28:15;100920.00;;;21.68;84.70
46464;BME280;32161;48.148;-1.554;2022-08-03T03:30:43;100922.94;;;21.72;84.79
46464;BME280;32161;48.148;-1.554;2022-08-03T03:33:11;100922.34;;;21.75;84.87
46464;BME280;32161;48.148;-1.554;2022-08-03T03:35:42;100921.25;;;21.76;84.61
46464;BME280;32161;48.148;-1.554;2022-08-03T03:38:11;100913.78;;;21.76;84.76
46464;BME280;32161;48.148;-1.554;2022-08-03T03:40:40;100916.81;;;21.75;84.63
46464;BME280;32161;48.148;-1.554;2022-08-03T03:43:09;100910.38;;;21.79;84.60
46464;BME280;32161;48.148;-1.554;2022-08-03T03:45:37;100913.47;;;21.78;84.75
46464;BME280;32161;48.148;-1.554;2022-08-03T03:48:07;100912.94;;;21.76;84.83
46464;BME280;32161;48.148;-1.554;2022-08-03T03:50:36;100914.28;;;21.78;84.93
46464;BME280;32161;48.148;-1.554;2022-08-03T03:53:09;100909.56;;;21.79;84.84
46464;BME280;32161;48.148;-1.554;2022-08-03T03:55:37;100920.63;;;21.79;84.49
46464;BME280;32161;48.148;-1.554;2022-08-03T03:58:06;100906.28;;;21.77;84.83
46464;BME280;32161;48.148;-1.554;2022-08-03T04:00:34;100911.50;;;21.78;84.70
46464;BME280;32161;48.148;-1.554;2022-08-03T04:03:02;100910.91;;;21.81;84.83
46464;BME280;32161;48.148;-1.554;2022-08-03T04:05:30;100912.03;;;21.80;84.93
46464;BME280;32161;48.148;-1.554;2022-08-03T04:08:17;100910.59;;;21.83;84.84
46464;BME280;32161;48.148;-1.554;2022-08-03T04:11:10;100913.38;;;21.83;84.71
46464;BME280;32161;48.148;-1.554;2022-08-03T04:13:45;100906.72;;;21.84;84.89
46464;BME280;32161;48.148;-1.554;2022-08-03T04:16:17;100910.81;;;21.86;84.78
46464;BME280;32161;48.148;-1.554;2022-08-03T04:18:58;100906.41;;;21.85;84.78
46464;BME280;32161;48.148;-1.554;2022-08-03T04:21:28;100900.38;;;21.83;84.80
46464;BME280;32161;48.148;-1.554;2022-08-03T04:24:02;100912.31;;;21.79;84.66
46464;BME280;32161;48.148;-1.554;2022-08-03T04:26:33;100906.28;;;21.77;85.29
46464;BME280;32161;48.148;-1.554;2022-08-03T04:29:03;100907.91;;;21.78;84.65
46464;BME280;32161;48.148;-1.554;2022-08-03T04:31:32;100904.66;;;21.76;84.92
46464;BME280;32161;48.148;-1.554;2022-08-03T04:34:01;100916.31;;;21.73;84.99
46464;BME280;32161;48.148;-1.554;2022-08-03T04:36:34;100916.69;;;21.66;85.55
46464;BME280;32161;48.148;-1.554;2022-08-03T04:39:10;100916.78;;;21.61;85.75
46464;BME280;32161;48.148;-1.554;2022-08-03T04:41:40;100919.00;;;21.59;85.83
46464;BME280;32161;48.148;-1.554;2022-08-03T04:44:10;100918.09;;;21.63;85.92
46464;BME280;32161;48.148;-1.554;2022-08-03T04:46:40;100915.41;;;21.58;86.01
46464;BME280;32161;48.148;-1.554;2022-08-03T04:49:09;100917.88;;;21.60;85.72
46464;BME280;32161;48.148;-1.554;2022-08-03T04:51:38;100914.81;;;21.61;86.11
46464;BME280;32161;48.148;-1.554;2022-08-03T04:54:11;100919.00;;;21.59;85.82
46464;BME280;32161;48.148;-1.554;2022-08-03T04:56:39;100924.25;;;21.60;86.11
46464;BME280;32161;48.148;-1.554;2022-08-03T04:59:07;100916.47;;;21.62;85.85
46464;BME280;32161;48.148;-1.554;2022-08-03T05:01:35;100925.06;;;21.61;86.16
46464;BME280;32161;48.148;-1.554;2022-08-03T05:04:03;100924.31;;;21.55;86.16
46464;BME280;32161;48.148;-1.554;2022-08-03T05:06:31;100923.50;;;21.55;86.47
46464;BME280;32161;48.148;-1.554;2022-08-03T05:08:58;100920.50;;;21.51;86.56
46464;BME280;32161;48.148;-1.554;2022-08-03T05:11:27;100921.03;;;21.53;86.98
46464;BME280;32161;48.148;-1.554;2022-08-03T05:13:55;100927.06;;;21.55;87.15
46464;BME280;32161;48.148;-1.554;2022-08-03T05:16:22;100920.94;;;21.58;86.90
46464;BME280;32161;48.148;-1.554;2022-08-03T05:18:50;100915.72;;;21.57;86.69
46464;BME280;32161;48.148;-1.554;2022-08-03T05:21:18;100921.25;;;21.57;86.91
46464;BME280;32161;48.148;-1.554;2022-08-03T05:23:46;100926.50;;;21.58;86.59
46464;BME280;32161;48.148;-1.554;2022-08-03T05:26:13;100918.91;;;21.64;86.57
46464;BME280;32161;48.148;-1.554;2022-08-03T05:28:42;100922.22;;;21.66;86.71
46464;BME280;32161;48.148;-1.554;2022-08-03T05:31:10;100928.28;;;21.68;86.61
46464;BME280;32161;48.148;-1.554;2022-08-03T05:33:38;100922.44;;;21.69;86.29
46464;BME280;32161;48.148;-1.554;2022-08-03T05:36:06;100930.16;;;21.73;86.96
46464;BME280;32161;48.148;-1.554;2022-08-03T05:38:34;100925.44;;;21.73;87.01
46464;BME280;32161;48.148;-1.554;2022-08-03T05:41:02;100925.13;;;21.75;86.74
46464;BME280;32161;48.148;-1.554;2022-08-03T05:43:30;100928.41;;;21.77;86.37
46464;BME280;32161;48.148;-1.554;2022-08-03T05:45:59;100929.63;;;21.70;86.28
46464;BME280;32161;48.148;-1.554;2022-08-03T05:48:27;100927.97;;;21.69;86.84
46464;BME280;32161;48.148;-1.554;2022-08-03T05:50:54;100923.25;;;21.70;87.12
46464;BME280;32161;48.148;-1.554;2022-08-03T05:53:22;100939.56;;;21.72;87.16
46464;BME280;32161;48.148;-1.554;2022-08-03T05:55:50;100936.19;;;21.75;86.63
46464;BME280;32161;48.148;-1.554;2022-08-03T05:58:17;100937.84;;;21.76;86.72
46464;BME280;32161;48.148;-1.554;2022-08-03T06:00:45;100936.63;;;21.82;86.77
46464;BME280;32161;48.148;-1.554;2022-08-03T06:03:13;100947.78;;;21.77;86.96
46464;BME280;32161;48.148;-1.554;2022-08-03T06:05:41;100944.81;;;21.73;86.77
46464;BME280;32161;48.148;-1.554;2022-08-03T06:08:09;100941.44;;;21.76;86.96
46464;BME280;32161;48.148;-1.554;2022-08-03T06:10:36;100940.09;;;21.74;86.61
46464;BME280;32161;48.148;-1.554;2022-08-03T06:13:04;100945.31;;;21.75;87.09
46464;BME280;32161;48.148;-1.554;2022-08-03T06:15:32;100944.34;;;21.85;87.10
46464;BME280;32161;48.148;-1.554;2022-08-03T06:18:00;100944.25;;;21.90;86.33
46464;BME280;32161;48.148;-1.554;2022-08-03T06:20:29;100943.66;;;21.93;86.54
46464;BME280;32161;48.148;-1.554;2022-08-03T06:22:57;100952.19;;;21.97;86.05
46464;BME280;32161;48.148;-1.554;2022-08-03T06:25:25;100952.41;;;22.00;85.82
46464;BME280;32161;48.148;-1.554;2022-08-03T06:27:53;100950.34;;;22.06;85.92
46464;BME280;32161;48.148;-1.554;2022-08-03T06:30:20;100951.09;;;22.11;85.93
46464;BME280;32161;48.148;-1.554;2022-08-03T06:32:48;100948.28;;;22.16;86.31
46464;BME280;32161;48.148;-1.554;2022-08-03T06:35:16;100953.13;;;22.25;85.91
46464;BME280;32161;48.148;-1.554;2022-08-03T06:37:46;100945.13;;;22.23;86.17
46464;BME280;32161;48.148;-1.554;2022-08-03T06:40:16;100947.28;;;22.26;85.64
46464;BME280;32161;48.148;-1.554;2022-08-03T06:42:45;100950.28;;;22.30;85.39
46464;BME280;32161;48.148;-1.554;2022-08-03T06:45:13;100952.13;;;22.34;85.93
46464;BME280;32161;48.148;-1.554;2022-08-03T06:47:40;100945.13;;;22.37;85.90
46464;BME280;32161;48.148;-1.554;2022-08-03T06:50:09;100953.66;;;22.40;85.23
46464;BME280;32161;48.148;-1.554;2022-08-03T06:52:37;100958.81;;;22.47;85.23
46464;BME280;32161;48.148;-1.554;2022-08-03T06:55:07;100949.06;;;22.50;84.67
46464;BME280;32161;48.148;-1.554;2022-08-03T06:57:34;100958.72;;;22.52;85.21
46464;BME280;32161;48.148;-1.554;2022-08-03T07:00:03;100960.59;;;22.57;85.10
46464;BME280;32161;48.148;-1.554;2022-08-03T07:02:31;100954.63;;;22.63;84.67
46464;BME280;32161;48.148;-1.554;2022-08-03T07:04:59;100966.66;;;22.73;84.45
46464;BME280;32161;48.148;-1.554;2022-08-03T07:07:26;100959.56;;;22.66;85.08
46464;BME280;32161;48.148;-1.554;2022-08-03T07:09:54;100960.09;;;22.69;84.90
46464;BME280;32161;48.148;-1.554;2022-08-03T07:12:24;100958.44;;;22.81;84.02
46464;BME280;32161;48.148;-1.554;2022-08-03T07:14:51;100950.03;;;22.73;84.85
46464;BME280;32161;48.148;-1.554;2022-08-03T07:17:19;100958.75;;;22.80;84.90
46464;BME280;32161;48.148;-1.554;2022-08-03T07:19:47;100959.88;;;22.79;84.48
46464;BME280;32161;48.148;-1.554;2022-08-03T07:22:14;100949.81;;;22.83;84.71
46464;BME280;32161;48.148;-1.554;2022-08-03T07:24:42;100953.28;;;22.75;84.39
46464;BME280;32161;48.148;-1.554;2022-08-03T07:27:10;100946.00;;;22.79;84.68
46464;BME280;32161;48.148;-1.554;2022-08-03T07:29:39;100937.00;;;22.87;84.71
46464;BME280;32161;48.148;-1.554;2022-08-03T07:32:06;100942.22;;;23.02;84.50
46464;BME280;32161;48.148;-1.554;2022-08-03T07:34:34;100944.31;;;23.10;83.98
46464;BME280;32161;48.148;-1.554;2022-08-03T07:37:02;100940.19;;;23.22;83.00
46464;BME280;32161;48.148;-1.554;2022-08-03T07:39:29;100935.66;;;23.26;83.24
46464;BME280;32161;48.148;-1.554;2022-08-03T07:41:57;100937.78;;;23.29;82.62
46464;BME280;32161;48.148;-1.554;2022-08-03T07:44:25;100943.72;;;23.36;82.26
46464;BME280;32161;48.148;-1.554;2022-08-03T07:46:54;100944.66;;;23.45;82.36
46464;BME280;32161;48.148;-1.554;2022-08-03T07:49:22;100946.97;;;23.52;82.43
46464;BME280;32161;48.148;-1.554;2022-08-03T07:51:49;100953.25;;;23.57;81.82
46464;BME280;32161;48.148;-1.554;2022-08-03T07:54:31;100948.91;;;23.65;81.96
46464;BME280;32161;48.148;-1.554;2022-08-03T07:56:58;100944.47;;;23.78;81.41
46464;BME280;32161;48.148;-1.554;2022-08-03T07:59:26;100935.28;;;23.91;81.21
46464;BME280;32161;48.148;-1.554;2022-08-03T08:01:55;100926.56;;;24.06;80.76
46464;BME280;32161;48.148;-1.554;2022-08-03T08:04:23;100927.09;;;24.17;80.60
46464;BME280;32161;48.148;-1.554;2022-08-03T08:06:50;100932.06;;;24.29;80.23
46464;BME280;32161;48.148;-1.554;2022-08-03T08:09:18;100921.84;;;24.38;79.81
46464;BME280;32161;48.148;-1.554;2022-08-03T08:11:45;100925.50;;;24.47;78.21
46464;BME280;32161;48.148;-1.554;2022-08-03T08:14:13;100921.16;;;24.64;77.90
46464;BME280;32161;48.148;-1.554;2022-08-03T08:16:41;100923.66;;;24.74;76.50
46464;BME280;32161;48.148;-1.554;2022-08-03T08:19:09;100918.97;;;24.83;76.71
46464;BME280;32161;48.148;-1.554;2022-08-03T08:21:39;100919.81;;;25.01;76.14
46464;BME280;32161;48.148;-1.554;2022-08-03T08:24:07;100914.81;;;25.12;75.80
46464;BME280;32161;48.148;-1.554;2022-08-03T08:26:35;100918.91;;;25.23;75.57
46464;BME280;32161;48.148;-1.554;2022-08-03T08:29:03;100919.78;;;25.41;74.34
46464;BME280;32161;48.148;-1.554;2022-08-03T08:31:31;100909.78;;;25.57;75.21
46464;BME280;32161;48.148;-1.554;2022-08-03T08:33:59;100902.91;;;25.72;74.71
46464;BME280;32161;48.148;-1.554;2022-08-03T08:36:32;100905.88;;;25.84;73.43
46464;BME280;32161;48.148;-1.554;2022-08-03T08:39:00;100907.31;;;25.90;72.02
46464;BME280;32161;48.148;-1.554;2022-08-03T08:41:28;100901.41;;;26.00;71.28
46464;BME280;32161;48.148;-1.554;2022-08-03T08:43:59;100907.94;;;26.13;70.80
46464;BME280;32161;48.148;-1.554;2022-08-03T08:46:27;100903.00;;;26.19;71.20
46464;BME280;32161;48.148;-1.554;2022-08-03T08:48:58;100917.06;;;26.31;71.23
46464;BME280;32161;48.148;-1.554;2022-08-03T08:51:30;100915.06;;;26.40;69.89
46464;BME280;32161;48.148;-1.554;2022-08-03T08:54:03;100912.09;;;26.54;69.55
46464;BME280;32161;48.148;-1.554;2022-08-03T08:56:33;100919.41;;;26.67;69.34
46464;BME280;32161;48.148;-1.554;2022-08-03T08:59:02;100914.44;;;26.82;69.29
46464;BME280;32161;48.148;-1.554;2022-08-03T09:01:29;100911.50;;;27.08;68.85
46464;BME280;32161;48.148;-1.554;2022-08-03T09:03:57;100916.25;;;27.16;69.34
46464;BME280;32161;48.148;-1.554;2022-08-03T09:06:25;100921.91;;;27.28;68.29
46464;BME280;32161;48.148;-1.554;2022-08-03T09:08:54;100921.28;;;27.43;67.54
46464;BME280;32161;48.148;-1.554;2022-08-03T09:11:22;100920.91;;;27.54;67.53
46464;BME280;32161;48.148;-1.554;2022-08-03T09:13:50;100907.94;;;27.70;66.88
46464;BME280;32161;48.148;-1.554;2022-08-03T09:16:20;100915.44;;;27.78;68.49
46464;BME280;32161;48.148;-1.554;2022-08-03T09:18:50;100915.72;;;27.85;67.98
46464;BME280;32161;48.148;-1.554;2022-08-03T09:21:22;100906.81;;;28.04;68.41
46464;BME280;32161;48.148;-1.554;2022-08-03T09:23:53;100916.91;;;28.30;66.83
46464;BME280;32161;48.148;-1.554;2022-08-03T09:26:24;100911.66;;;28.28;66.11
46464;BME280;32161;48.148;-1.554;2022-08-03T09:28:57;100920.53;;;28.30;66.72
46464;BME280;32161;48.148;-1.554;2022-08-03T09:31:34;100918.03;;;28.50;66.78
46464;BME280;32161;48.148;-1.554;2022-08-03T09:34:04;100918.03;;;28.74;65.76
46464;BME280;32161;48.148;-1.554;2022-08-03T09:36:40;100924.78;;;28.85;64.89
46464;BME280;32161;48.148;-1.554;2022-08-03T09:39:12;100927.59;;;28.85;64.55
46464;BME280;32161;48.148;-1.554;2022-08-03T09:41:42;100922.72;;;28.94;64.34
46464;BME280;32161;48.148;-1.554;2022-08-03T09:44:10;100915.47;;;28.93;62.49
46464;BME280;32161;48.148;-1.554;2022-08-03T09:46:48;100913.72;;;28.64;63.89
46464;BME280;32161;48.148;-1.554;2022-08-03T09:49:16;100913.25;;;28.75;64.46
46464;BME280;32161;48.148;-1.554;2022-08-03T09:51:44;100914.06;;;28.87;63.23
46464;BME280;32161;48.148;-1.554;2022-08-03T09:54:25;100906.63;;;29.04;62.76
46464;BME280;32161;48.148;-1.554;2022-08-03T09:56:54;100905.78;;;29.15;61.80
46464;BME280;32161;48.148;-1.554;2022-08-03T09:59:27;100903.66;;;29.25;62.03
46464;BME280;32161;48.148;-1.554;2022-08-03T10:01:56;100907.72;;;29.39;61.61
46464;BME280;32161;48.148;-1.554;2022-08-03T10:04:25;100909.56;;;29.48;60.66
46464;BME280;32161;48.148;-1.554;2022-08-03T10:07:05;100914.00;;;29.49;60.54
46464;BME280;32161;48.148;-1.554;2022-08-03T10:09:36;100907.56;;;29.48;61.08
46464;BME280;32161;48.148;-1.554;2022-08-03T10:12:08;100907.22;;;29.62;61.37
46464;BME280;32161;48.148;-1.554;2022-08-03T10:14:37;100913.41;;;29.67;60.67
46464;BME280;32161;48.148;-1.554;2022-08-03T10:17:07;100910.03;;;29.62;60.83
46464;BME280;32161;48.148;-1.554;2022-08-03T10:19:35;100907.28;;;29.78;61.07
46464;BME280;32161;48.148;-1.554;2022-08-03T10:22:09;100902.81;;;30.05;59.51
46464;BME280;32161;48.148;-1.554;2022-08-03T10:24:51;100905.38;;;30.10;60.18
46464;BME280;32161;48.148;-1.554;2022-08-03T10:27:22;100904.97;;;30.24;60.07
46464;BME280;32161;48.148;-1.554;2022-08-03T10:29:52;100904.53;;;30.37;58.88
46464;BME280;32161;48.148;-1.554;2022-08-03T10:32:26;100904.53;;;30.37;59.06
46464;BME280;32161;48.148;-1.554;2022-08-03T10:35:03;100900.00;;;30.64;57.07
46464;BME280;32161;48.148;-1.554;2022-08-03T10:37:37;100898.00;;;30.65;57.76
46464;BME280;32161;48.148;-1.554;2022-08-03T10:40:13;100901.00;;;30.72;56.64
46464;BME280;32161;48.148;-1.554;2022-08-03T10:42:42;100906.16;;;30.70;57.05
46464;BME280;32161;48.148;-1.554;2022-08-03T10:45:17;100894.56;;;30.72;57.36
46464;BME280;32161;48.148;-1.554;2022-08-03T10:47:47;100900.91;;;30.84;57.09
46464;BME280;32161;48.148;-1.554;2022-08-03T10:50:15;100897.47;;;30.91;57.03
46464;BME280;32161;48.148;-1.554;2022-08-03T10:52:56;100892.47;;;31.00;56.31
46464;BME280;32161;48.148;-1.554;2022-08-03T10:55:35;100895.06;;;31.09;57.39
46464;BME280;32161;48.148;-1.554;2022-08-03T10:58:49;100894.88;;;31.02;56.06
46464;BME280;32161;48.148;-1.554;2022-08-03T11:01:19;100902.34;;;30.94;56.46
46464;BME280;32161;48.148;-1.554;2022-08-03T11:04:18;100889.09;;;31.10;55.42
46464;BME280;32161;48.148;-1.554;2022-08-03T11:06:46;100885.25;;;31.19;56.41
46464;BME280;32161;48.148;-1.554;2022-08-03T11:09:16;100886.66;;;31.28;55.97
46464;BME280;32161;48.148;-1.554;2022-08-03T11:11:47;100881.69;;;31.38;56.38
46464;BME280;32161;48.148;-1.554;2022-08-03T11:14:17;100888.06;;;31.54;55.22
46464;BME280;32161;48.148;-1.554;2022-08-03T11:16:47;100881.16;;;31.71;53.91
46464;BME280;32161;48.148;-1.554;2022-08-03T11:19:18;100878.41;;;31.74;53.67
46464;BME280;32161;48.148;-1.554;2022-08-03T11:21:56;100879.31;;;31.78;54.33
46464;BME280;32161;48.148;-1.554;2022-08-03T11:25:00;100875.94;;;31.89;54.34
46464;BME280;32161;48.148;-1.554;2022-08-03T11:27:30;100883.31;;;31.97;54.58
46464;BME280;32161;48.148;-1.554;2022-08-03T11:30:03;100877.13;;;31.68;55.28
46464;BME280;32161;48.148;-1.554;2022-08-03T11:32:52;100875.34;;;31.60;55.92
46464;BME280;32161;48.148;-1.554;2022-08-03T11:35:23;100872.13;;;31.81;56.18
46464;BME280;32161;48.148;-1.554;2022-08-03T11:38:08;100868.31;;;31.89;56.14
46464;BME280;32161;48.148;-1.554;2022-08-03T11:40:40;100866.50;;;32.00;54.97
46464;BME280;32161;48.148;-1.554;2022-08-03T11:45:59;100862.06;;;31.99;54.73
46464;BME280;32161;48.148;-1.554;2022-08-03T11:48:34;100857.72;;;32.02;55.03
46464;BME280;32161;48.148;-1.554;2022-08-03T11:51:05;100860.47;;;32.21;54.58
46464;BME280;32161;48.148;-1.554;2022-08-03T11:53:33;100862.03;;;32.42;53.81
46464;BME280;32161;48.148;-1.554;2022-08-03T11:56:02;100861.16;;;32.61;52.98
46464;BME280;32161;48.148;-1.554;2022-08-03T11:58:29;100867.72;;;32.68;53.63
46464;BME280;32161;48.148;-1.554;2022-08-03T12:01:04;100864.66;;;32.80;52.59
46464;BME280;32161;48.148;-1.554;2022-08-03T12:03:33;100859.44;;;32.79;51.86
46464;BME280;32161;48.148;-1.554;2022-08-03T12:06:02;100865.53;;;32.85;52.22
46464;BME280;32161;48.148;-1.554;2022-08-03T12:08:35;100859.56;;;32.90;52.46
46464;BME280;32161;48.148;-1.554;2022-08-03T12:11:05;100869.81;;;33.01;52.29
46464;BME280;32161;48.148;-1.554;2022-08-03T12:13:40;100868.56;;;32.72;51.18
46464;BME280;32161;48.148;-1.554;2022-08-03T12:16:09;100868.63;;;32.76;52.46
46464;BME280;32161;48.148;-1.554;2022-08-03T12:18:36;100861.03;;;32.80;51.43
46464;BME280;32161;48.148;-1.554;2022-08-03T12:21:09;100864.59;;;33.00;51.70
46464;BME280;32161;48.148;-1.554;2022-08-03T12:23:38;100856.72;;;33.13;50.84
46464;BME280;32161;48.148;-1.554;2022-08-03T12:26:08;100858.06;;;33.22;51.18
46464;BME280;32161;48.148;-1.554;2022-08-03T12:28:37;100859.72;;;33.27;50.25
46464;BME280;32161;48.148;-1.554;2022-08-03T12:31:13;100865.56;;;33.11;49.43
46464;BME280;32161;48.148;-1.554;2022-08-03T12:33:59;100864.28;;;33.09;49.54
46464;BME280;32161;48.148;-1.554;2022-08-03T12:36:33;100856.41;;;33.18;50.03
46464;BME280;32161;48.148;-1.554;2022-08-03T12:39:04;100858.63;;;33.35;50.35
46464;BME280;32161;48.148;-1.554;2022-08-03T12:41:33;100852.69;;;33.44;48.57
46464;BME280;32161;48.148;-1.554;2022-08-03T12:44:01;100856.00;;;33.49;49.13
46464;BME280;32161;48.148;-1.554;2022-08-03T12:46:32;100855.50;;;33.44;48.59
46464;BME280;32161;48.148;-1.554;2022-08-03T12:49:06;100855.50;;;33.44;48.12
46464;BME280;32161;48.148;-1.554;2022-08-03T12:51:37;100852.69;;;33.44;49.10
46464;BME280;32161;48.148;-1.554;2022-08-03T12:54:24;100854.94;;;33.61;49.24
46464;BME280;32161;48.148;-1.554;2022-08-03T12:56:59;100855.47;;;33.74;48.99
46464;BME280;32161;48.148;-1.554;2022-08-03T12:59:29;100851.16;;;33.84;47.83
46464;BME280;32161;48.148;-1.554;2022-08-03T13:01:57;100853.22;;;33.87;48.13